Time;durP1;ratioP1;P1;durP2;ratioP2;P2;SDS_P1;SDS_P2;PMS_P1;PMS_P2;Temp;Humidity;BMP_temperature;BMP_pressure;BME280_temperature;BME280_humidity;BME280_pressure;Samples;Min_cycle;Max_cycle;Signal;HPM_P1;HPM_P2
2023/10/07 00:01:07;;;;;;;;;;;;;;;12.46;64.83;98756.13;5107114;28;19928;-61
2023/10/07 00:03:58;;;;;;;;;;;;;;;12.39;65.04;98761.19;5101047;28;19924;-61
2023/10/07 00:06:46;;;;;;;;;;;;;;;12.39;65.14;98759.28;5105591;28;19934;-60
2023/10/07 00:09:34;;;;;;;;;;;;;;;12.37;65.10;98763.44;5105659;28;20381;-61
2023/10/07 00:12:23;;;;;;;;;;;;;;;12.31;65.31;98757.25;5108401;28;20072;-61
2023/10/07 00:15:11;;;;;;;;;;;;;;;12.29;65.37;98754.81;5108434;28;19931;-61
2023/10/07 00:18:06;;;;;;;;;;;;;;;12.28;65.41;98749.69;5103842;28;19930;-61
2023/10/07 00:20:56;;;;;;;;;;;;;;;12.31;65.62;98751.81;5107862;28;20406;-60
2023/10/07 00:23:44;;;;;;;;;;;;;;;12.16;65.69;98738.47;5109874;27;19927;-61
2023/10/07 00:26:34;;;;;;;;;;;;;;;12.20;65.68;98750.41;5114012;27;20478;-60
2023/10/07 00:29:23;;;;;;;;;;;;;;;12.17;65.70;98740.91;5118346;27;19924;-61
2023/10/07 00:32:12;;;;;;;;;;;;;;;12.14;65.52;98740.69;5104053;28;19927;-61
2023/10/07 00:35:06;;;;;;;;;;;;;;;12.16;65.62;98730.31;5112978;28;20392;-61
2023/10/07 00:37:58;;;;;;;;;;;;;;;12.15;65.53;98734.16;5097262;28;20529;-61
2023/10/07 00:40:52;;;;;;;;;;;;;;;12.11;65.70;98730.41;5109056;28;20002;-61
2023/10/07 00:43:42;;;;;;;;;;;;;;;12.13;65.58;98728.97;5118646;27;20418;-62
2023/10/07 00:46:34;;;;;;;;;;;;;;;12.13;65.30;98728.97;5104110;28;19924;-61
2023/10/07 00:49:27;;;;;;;;;;;;;;;12.10;65.51;98732.31;5098573;28;19924;-61
2023/10/07 00:52:27;;;;;;;;;;;;;;;12.09;65.29;98732.59;5104349;27;20373;-61
2023/10/07 00:55:22;;;;;;;;;;;;;;;12.05;65.49;98738.66;5097380;27;19930;-61
2023/10/07 00:58:19;;;;;;;;;;;;;;;12.00;65.75;98735.22;5111013;27;19927;-61
2023/10/07 01:01:09;;;;;;;;;;;;;;;12.00;65.85;98735.22;5110608;27;19923;-62
2023/10/07 01:04:01;;;;;;;;;;;;;;;11.97;65.77;98724.94;5111403;27;19924;-61
2023/10/07 01:07:00;;;;;;;;;;;;;;;11.93;65.89;98716.56;5099245;27;19939;-61
2023/10/07 01:09:57;;;;;;;;;;;;;;;11.96;65.57;98713.22;5100095;27;19931;-61
2023/10/07 01:12:51;;;;;;;;;;;;;;;11.92;65.79;98708.69;5109178;27;19945;-61
2023/10/07 01:15:39;;;;;;;;;;;;;;;11.91;65.74;98707.88;5099077;27;19924;-62
2023/10/07 01:18:28;;;;;;;;;;;;;;;11.86;65.61;98699.00;5113988;27;19931;-62
2023/10/07 01:21:31;;;;;;;;;;;;;;;11.79;65.96;98708.34;5112127;27;19927;-62
2023/10/07 01:24:44;;;;;;;;;;;;;;;11.77;66.08;98698.84;5096354;27;19957;-62
2023/10/07 01:27:41;;;;;;;;;;;;;;;11.80;65.68;98707.22;5113643;27;19963;-61
2023/10/07 01:30:30;;;;;;;;;;;;;;;11.79;65.93;98707.53;5114042;27;19928;-61
2023/10/07 01:33:25;;;;;;;;;;;;;;;11.75;65.92;98695.63;5115810;27;21704;-61
2023/10/07 01:36:16;;;;;;;;;;;;;;;11.72;65.81;98696.25;5107527;27;19923;-61
2023/10/07 01:39:06;;;;;;;;;;;;;;;11.70;66.03;98696.50;5092068;27;20407;-62
2023/10/07 01:42:01;;;;;;;;;;;;;;;11.73;66.00;98692.41;5105575;27;19931;-60
2023/10/07 01:44:54;;;;;;;;;;;;;;;11.66;66.07;98702.84;5112100;27;20582;-62
2023/10/07 01:47:43;;;;;;;;;;;;;;;11.67;66.08;98701.78;5097157;27;19943;-61
2023/10/07 01:50:33;;;;;;;;;;;;;;;11.66;66.14;98706.38;5092807;27;19928;-61
2023/10/07 01:53:22;;;;;;;;;;;;;;;11.69;66.03;98704.97;5103905;27;20000;-62
2023/10/07 01:56:14;;;;;;;;;;;;;;;11.69;65.81;98707.72;5109974;27;19927;-61
2023/10/07 01:59:17;;;;;;;;;;;;;;;11.63;66.03;98703.47;5126256;27;19931;-61
2023/10/07 02:02:06;;;;;;;;;;;;;;;11.61;65.90;98711.94;5094432;27;19924;-62
2023/10/07 02:04:56;;;;;;;;;;;;;;;11.62;65.72;98723.63;5109473;27;19923;-61
2023/10/07 02:07:46;;;;;;;;;;;;;;;11.62;65.71;98729.88;5107579;27;20118;-61
2023/10/07 02:10:35;;;;;;;;;;;;;;;11.62;65.59;98729.06;5105660;27;20771;-61
2023/10/07 02:13:24;;;;;;;;;;;;;;;11.55;65.72;98722.06;5098478;27;19963;-61
2023/10/07 02:16:16;;;;;;;;;;;;;;;11.60;65.58;98726.63;5108740;27;20323;-61
2023/10/07 02:19:04;;;;;;;;;;;;;;;11.59;65.82;98732.38;5094095;27;19924;-61
2023/10/07 02:21:52;;;;;;;;;;;;;;;11.57;65.93;98726.44;5090751;27;20282;-61
2023/10/07 02:24:41;;;;;;;;;;;;;;;11.50;66.02;98719.47;5107151;27;19931;-61
2023/10/07 02:27:37;;;;;;;;;;;;;;;11.51;66.05;98702.03;5098960;27;19938;-61
2023/10/07 02:30:26;;;;;;;;;;;;;;;11.51;65.69;98707.47;5107103;27;20430;-62
2023/10/07 02:33:15;;;;;;;;;;;;;;;11.47;65.62;98717.31;5109618;27;19927;-62
2023/10/07 02:36:04;;;;;;;;;;;;;;;11.50;65.54;98715.91;5108372;27;19928;-62
2023/10/07 02:38:52;;;;;;;;;;;;;;;11.47;65.50;98716.53;5098973;27;19932;-63
2023/10/07 02:41:46;;;;;;;;;;;;;;;11.46;65.61;98710.28;5091492;27;19931;-61
2023/10/07 02:44:35;;;;;;;;;;;;;;;11.42;65.72;98703.81;5089669;27;19934;-61
2023/10/07 02:47:26;;;;;;;;;;;;;;;11.43;65.56;98697.25;5089716;27;20285;-61
2023/10/07 02:50:16;;;;;;;;;;;;;;;11.40;65.23;98695.13;5105628;27;19924;-60
2023/10/07 02:53:11;;;;;;;;;;;;;;;11.38;65.41;98685.66;5106965;27;19966;-61
2023/10/07 02:55:59;;;;;;;;;;;;;;;11.36;65.41;98704.19;5105118;27;20249;-61
2023/10/07 02:58:58;;;;;;;;;;;;;;;11.42;65.29;98698.34;5092630;27;20405;-62
2023/10/07 03:02:12;;;;;;;;;;;;;;;11.39;65.41;98696.22;5100733;27;20381;-61
2023/10/07 03:05:13;;;;;;;;;;;;;;;11.41;65.26;98698.66;5073636;28;19924;-61
2023/10/07 03:08:03;;;;;;;;;;;;;;;11.41;65.36;98704.09;5066789;28;19932;-61
2023/10/07 03:11:03;;;;;;;;;;;;;;;11.35;65.36;98697.13;5071705;28;20015;-62
2023/10/07 03:13:57;;;;;;;;;;;;;;;11.06;66.21;98711.69;5096479;27;20054;-62
2023/10/07 03:16:46;;;;;;;;;;;;;;;10.85;66.57;98716.63;5070408;28;19924;-62
2023/10/07 03:19:48;;;;;;;;;;;;;;;10.84;66.83;98714.22;5063783;28;19929;-61
2023/10/07 03:23:10;;;;;;;;;;;;;;;10.92;66.40;98711.66;5094388;27;19934;-62
2023/10/07 03:26:05;;;;;;;;;;;;;;;11.00;66.46;98707.44;5069530;28;19962;-61
2023/10/07 03:28:55;;;;;;;;;;;;;;;10.83;66.36;98718.03;5069569;28;19985;-61
2023/10/07 03:31:48;;;;;;;;;;;;;;;10.69;66.91;98710.59;5065009;28;19924;-61
2023/10/07 03:34:37;;;;;;;;;;;;;;;10.75;66.76;98714.03;5068006;28;20721;-61
2023/10/07 03:37:27;;;;;;;;;;;;;;;10.84;66.39;98706.06;5065857;28;19931;-61
2023/10/07 03:40:25;;;;;;;;;;;;;;;10.90;66.03;98718.47;5069610;28;20011;-62
2023/10/07 03:43:16;;;;;;;;;;;;;;;10.95;65.81;98721.91;5066803;28;19928;-61
2023/10/07 03:46:04;;;;;;;;;;;;;;;11.02;65.78;98711.50;5068451;28;19939;-61
2023/10/07 03:48:55;;;;;;;;;;;;;;;11.01;65.66;98709.06;5069496;28;19936;-62
2023/10/07 03:51:45;;;;;;;;;;;;;;;10.97;65.87;98708.84;5069409;28;19924;-61
2023/10/07 03:54:33;;;;;;;;;;;;;;;11.02;65.87;98714.22;5095460;27;20423;-61
2023/10/07 03:57:21;;;;;;;;;;;;;;;11.04;65.61;98718.56;5071186;28;20413;-61
2023/10/07 04:00:13;;;;;;;;;;;;;;;10.98;65.76;98721.34;5069967;28;20318;-61
2023/10/07 04:03:07;;;;;;;;;;;;;;;10.93;66.07;98709.72;5081432;27;19939;-62
2023/10/07 04:05:56;;;;;;;;;;;;;;;11.00;65.67;98702.00;5097788;27;19923;-61
2023/10/07 04:08:44;;;;;;;;;;;;;;;10.95;65.73;98705.59;5106503;27;20111;-62
2023/10/07 04:11:34;;;;;;;;;;;;;;;10.95;65.89;98696.66;5111000;27;19955;-61
2023/10/07 04:14:27;;;;;;;;;;;;;;;10.92;66.05;98695.34;5101746;27;19931;-62
2023/10/07 04:17:17;;;;;;;;;;;;;;;10.91;66.00;98699.13;5105701;27;20377;-62
2023/10/07 04:20:18;;;;;;;;;;;;;;;10.85;66.44;98699.50;5109252;27;19924;-60
2023/10/07 04:23:06;;;;;;;;;;;;;;;10.84;66.46;98687.84;5109936;27;19928;-61
2023/10/07 04:26:05;;;;;;;;;;;;;;;10.84;66.33;98687.84;5125802;27;19927;-61
2023/10/07 04:28:53;;;;;;;;;;;;;;;10.87;66.24;98686.44;5104767;27;19932;-61
2023/10/07 04:31:45;;;;;;;;;;;;;;;10.92;66.16;98684.47;5105345;27;19928;-61
2023/10/07 04:34:46;;;;;;;;;;;;;;;10.88;66.35;98691.59;5107689;27;20010;-61
2023/10/07 04:37:51;;;;;;;;;;;;;;;10.94;66.07;98695.03;5109834;27;19924;-61
2023/10/07 04:41:31;;;;;;;;;;;;;;;10.96;65.92;98700.97;5103645;27;20420;-61
2023/10/07 04:45:15;;;;;;;;;;;;;;;10.84;66.44;98706.84;5108950;27;19924;-61
2023/10/07 04:47:46;;;;;;;;;;;;;;;10.83;66.35;98705.25;5110191;27;20464;-61
2023/10/07 04:50:36;;;;;;;;;;;;;;;10.87;66.24;98702.75;5104626;27;21118;-61
2023/10/07 04:53:25;;;;;;;;;;;;;;;10.87;66.23;98695.41;5099339;27;19924;-61
2023/10/07 04:56:20;;;;;;;;;;;;;;;10.89;66.21;98695.91;5108339;27;19924;-61
2023/10/07 04:59:10;;;;;;;;;;;;;;;10.89;66.28;98701.34;5104421;27;20001;-61
2023/10/07 05:02:01;;;;;;;;;;;;;;;10.87;66.37;98692.69;5103568;27;19923;-62
2023/10/07 05:04:50;;;;;;;;;;;;;;;10.79;66.99;98685.19;5056404;28;19925;-61
2023/10/07 05:07:39;;;;;;;;;;;;;;;10.83;66.92;98680.78;5073658;28;19928;-61
2023/10/07 05:10:29;;;;;;;;;;;;;;;10.84;66.90;98676.16;5065451;28;19932;-61
2023/10/07 05:13:16;;;;;;;;;;;;;;;10.87;66.54;98670.94;5063870;28;20385;-61
2023/10/07 05:16:08;;;;;;;;;;;;;;;10.86;66.41;98674.75;5070276;28;20027;-60
2023/10/07 05:18:56;;;;;;;;;;;;;;;10.85;66.43;98673.13;5066769;28;19931;-62
2023/10/07 05:21:44;;;;;;;;;;;;;;;10.87;66.40;98676.38;5070298;28;19929;-62
2023/10/07 05:24:33;;;;;;;;;;;;;;;10.93;66.29;98683.34;5064763;28;19946;-63
2023/10/07 05:27:21;;;;;;;;;;;;;;;10.91;66.41;98690.16;5072362;28;19933;-61
2023/10/07 05:30:12;;;;;;;;;;;;;;;10.93;66.34;98691.50;5068558;28;19931;-62
2023/10/07 05:33:08;;;;;;;;;;;;;;;10.95;66.31;98674.91;5066867;28;19925;-61
2023/10/07 05:36:00;;;;;;;;;;;;;;;10.98;66.18;98679.75;5068499;28;20009;-61
2023/10/07 05:38:50;;;;;;;;;;;;;;;11.01;66.21;98684.59;5062909;28;20796;-62
2023/10/07 05:41:41;;;;;;;;;;;;;;;10.97;66.19;98686.28;5067603;28;19931;-61
2023/10/07 05:44:30;;;;;;;;;;;;;;;11.02;66.30;98692.47;5065135;28;19928;-62
2023/10/07 05:47:18;;;;;;;;;;;;;;;11.05;66.20;98682.91;5065843;28;20449;-63
2023/10/07 05:50:08;;;;;;;;;;;;;;;11.05;66.26;98682.91;5064505;28;19932;-63
2023/10/07 05:52:56;;;;;;;;;;;;;;;11.11;66.26;98679.00;5068685;28;20369;-62
2023/10/07 05:55:46;;;;;;;;;;;;;;;11.11;66.13;98684.44;5062495;28;19959;-62
2023/10/07 05:58:36;;;;;;;;;;;;;;;11.15;66.03;98688.19;5070500;28;19924;-62
2023/10/07 06:01:24;;;;;;;;;;;;;;;11.19;65.93;98693.84;5089985;28;19928;-62
2023/10/07 06:04:12;;;;;;;;;;;;;;;11.20;66.01;98679.16;5090118;28;20413;-67
2023/10/07 06:07:00;;;;;;;;;;;;;;;11.21;66.02;98697.88;5104876;28;19924;-62
2023/10/07 06:09:48;;;;;;;;;;;;;;;11.27;65.82;98687.72;5100999;28;19970;-62
2023/10/07 06:12:36;;;;;;;;;;;;;;;11.30;65.95;98695.31;5108501;28;20006;-63
2023/10/07 06:15:26;;;;;;;;;;;;;;;11.34;65.77;98696.31;5100316;28;19924;-63
2023/10/07 06:18:18;;;;;;;;;;;;;;;11.36;65.36;98683.22;5108640;28;19934;-63
2023/10/07 06:21:19;;;;;;;;;;;;;;;11.33;65.41;98693.88;5104526;28;19924;-63
2023/10/07 06:24:13;;;;;;;;;;;;;;;11.38;65.59;98700.06;5105955;28;20023;-64
2023/10/07 06:27:06;;;;;;;;;;;;;;;11.42;65.68;98694.84;5101779;28;19928;-63
2023/10/07 06:29:54;;;;;;;;;;;;;;;11.44;65.72;98703.50;5109762;28;20392;-68
2023/10/07 06:32:44;;;;;;;;;;;;;;;11.46;65.75;98704.81;5103718;28;20401;-62
2023/10/07 06:35:37;;;;;;;;;;;;;;;11.51;65.79;98707.47;5107316;28;19930;-62
2023/10/07 06:38:26;;;;;;;;;;;;;;;11.55;65.57;98713.09;5108605;28;19931;-61
2023/10/07 06:41:14;;;;;;;;;;;;;;;11.55;65.92;98708.47;5104910;28;19927;-63
2023/10/07 06:44:03;;;;;;;;;;;;;;;11.54;66.05;98711.50;5104344;28;19924;-63
2023/10/07 06:46:55;;;;;;;;;;;;;;;11.58;65.84;98711.72;5109955;28;19938;-62
2023/10/07 06:49:44;;;;;;;;;;;;;;;11.61;65.80;98705.66;5107189;27;20067;-62
2023/10/07 06:52:33;;;;;;;;;;;;;;;11.65;66.01;98712.13;5093932;28;19934;-62
2023/10/07 06:55:21;;;;;;;;;;;;;;;11.70;65.74;98706.59;5096787;28;20369;-63
2023/10/07 06:58:11;;;;;;;;;;;;;;;11.74;65.70;98704.91;5099856;28;19931;-62
2023/10/07 07:01:10;;;;;;;;;;;;;;;11.79;65.79;98708.34;5105872;28;19931;-63
2023/10/07 07:04:04;;;;;;;;;;;;;;;11.86;66.09;98723.50;5098191;28;20073;-62
2023/10/07 07:07:09;;;;;;;;;;;;;;;11.93;65.94;98724.75;5093901;28;20495;-63
2023/10/07 07:09:59;;;;;;;;;;;;;;;12.00;65.12;98721.63;5098680;28;20291;-62
2023/10/07 07:12:47;;;;;;;;;;;;;;;12.02;64.79;98728.38;5103300;28;19930;-62
2023/10/07 07:15:41;;;;;;;;;;;;;;;12.10;65.25;98721.44;5103800;28;20012;-63
2023/10/07 07:18:31;;;;;;;;;;;;;;;12.21;65.10;98730.22;5106125;28;19928;-63
2023/10/07 07:21:31;;;;;;;;;;;;;;;12.30;65.17;98742.00;5098731;27;20288;-63
2023/10/07 07:24:23;;;;;;;;;;;;;;;12.39;64.91;98753.03;5100389;28;20085;-62
2023/10/07 07:27:12;;;;;;;;;;;;;;;12.46;64.33;98754.22;5106920;28;19923;-63
2023/10/07 07:30:08;;;;;;;;;;;;;;;12.51;64.09;98758.75;5100460;27;19923;-62
2023/10/07 07:32:59;;;;;;;;;;;;;;;12.55;64.82;98757.84;5110356;27;19923;-62
2023/10/07 07:35:51;;;;;;;;;;;;;;;12.58;64.33;98759.19;5109873;27;19950;-62
2023/10/07 07:38:44;;;;;;;;;;;;;;;12.59;64.82;98760.78;5111822;27;19923;-62
2023/10/07 07:41:37;;;;;;;;;;;;;;;12.65;64.82;98761.50;5107757;27;19930;-62
2023/10/07 07:44:33;;;;;;;;;;;;;;;12.71;64.66;98765.72;5096728;28;20293;-63
2023/10/07 07:47:21;;;;;;;;;;;;;;;12.75;64.46;98767.56;5105605;28;19928;-63
2023/10/07 07:50:09;;;;;;;;;;;;;;;12.84;64.50;98770.38;5104285;28;20338;-62
2023/10/07 07:53:06;;;;;;;;;;;;;;;12.88;64.06;98776.00;5106010;28;19923;-62
2023/10/07 07:55:56;;;;;;;;;;;;;;;12.94;63.86;98769.34;5104344;28;19939;-63
2023/10/07 07:58:47;;;;;;;;;;;;;;;12.94;64.06;98770.13;5105451;28;19934;-62
2023/10/07 08:01:39;;;;;;;;;;;;;;;12.99;63.94;98772.75;5106346;28;19943;-63
2023/10/07 08:04:39;;;;;;;;;;;;;;;13.07;64.07;98769.31;5092428;28;19931;-63
2023/10/07 08:07:28;;;;;;;;;;;;;;;13.17;63.95;98778.41;5120631;27;19938;-62
2023/10/07 08:10:20;;;;;;;;;;;;;;;13.25;63.98;98775.75;5107561;28;19924;-63
2023/10/07 08:13:08;;;;;;;;;;;;;;;13.31;64.28;98792.81;5106236;28;19984;-62
2023/10/07 08:16:05;;;;;;;;;;;;;;;13.36;63.87;98781.78;5107721;28;20028;-62
2023/10/07 08:18:56;;;;;;;;;;;;;;;13.40;63.84;98785.53;5106388;28;19939;-63
2023/10/07 08:21:46;;;;;;;;;;;;;;;13.46;63.64;98778.84;5100300;28;20380;-63
2023/10/07 08:24:39;;;;;;;;;;;;;;;13.52;63.83;98774.84;5103847;28;20296;-62
2023/10/07 08:27:49;;;;;;;;;;;;;;;13.57;63.65;98788.38;5102307;28;19924;-62
2023/10/07 08:30:38;;;;;;;;;;;;;;;13.65;63.46;98786.06;5101500;28;19924;-63
2023/10/07 08:33:33;;;;;;;;;;;;;;;13.71;63.67;98782.09;5100800;28;20274;-62
2023/10/07 08:36:27;;;;;;;;;;;;;;;13.75;63.58;98791.28;5104171;28;20123;-62
2023/10/07 08:39:19;;;;;;;;;;;;;;;13.82;63.75;98788.91;5099223;28;20065;-62
2023/10/07 08:42:12;;;;;;;;;;;;;;;13.85;63.56;98782.84;5106469;28;19924;-62
2023/10/07 08:45:00;;;;;;;;;;;;;;;13.91;64.02;98786.25;5102022;28;20572;-63
2023/10/07 08:47:49;;;;;;;;;;;;;;;13.98;63.98;98781.94;5110088;28;20012;-62
2023/10/07 08:50:49;;;;;;;;;;;;;;;14.04;63.82;98780.69;5110673;28;19972;-63
2023/10/07 08:53:37;;;;;;;;;;;;;;;14.11;63.82;98783.81;5105270;28;19931;-62
2023/10/07 08:56:27;;;;;;;;;;;;;;;14.19;63.38;98781.41;5110021;28;19948;-62
2023/10/07 08:59:16;;;;;;;;;;;;;;;14.24;63.26;98778.56;5111208;28;19924;-62
2023/10/07 09:02:12;;;;;;;;;;;;;;;14.29;62.95;98775.69;5105679;28;19963;-63
2023/10/07 09:05:05;;;;;;;;;;;;;;;14.30;62.57;98780.03;5078806;28;19925;-62
2023/10/07 09:07:56;;;;;;;;;;;;;;;14.34;62.58;98775.53;5076499;28;20004;-62
2023/10/07 09:10:45;;;;;;;;;;;;;;;14.36;62.69;98778.75;5060754;28;20098;-63
2023/10/07 09:13:33;;;;;;;;;;;;;;;14.39;62.86;98775.41;5077449;28;19959;-63
2023/10/07 09:16:25;;;;;;;;;;;;;;;14.42;62.84;98764.63;5078015;28;19928;-63
2023/10/07 09:19:15;;;;;;;;;;;;;;;14.44;62.74;98764.34;5081679;28;20019;-63
2023/10/07 09:22:10;;;;;;;;;;;;;;;14.46;63.17;98775.75;5059751;28;19925;-63
2023/10/07 09:25:09;;;;;;;;;;;;;;;14.48;62.89;98773.53;5077399;28;20389;-62
2023/10/07 09:27:58;;;;;;;;;;;;;;;14.50;63.54;98775.97;5069803;28;19925;-63
2023/10/07 09:30:48;;;;;;;;;;;;;;;14.53;63.09;98781.59;5078229;28;20020;-62
2023/10/07 09:33:36;;;;;;;;;;;;;;;14.57;62.94;98785.31;5072521;28;19939;-62
2023/10/07 09:36:33;;;;;;;;;;;;;;;14.62;62.69;98776.16;5075720;28;19932;-64
2023/10/07 09:39:34;;;;;;;;;;;;;;;14.66;61.79;98785.34;5074931;28;19924;-62
2023/10/07 09:42:26;;;;;;;;;;;;;;;14.64;61.68;98785.66;5068595;28;20038;-62
2023/10/07 09:45:17;;;;;;;;;;;;;;;14.73;61.22;98793.09;5070187;28;19924;-62
2023/10/07 09:48:05;;;;;;;;;;;;;;;14.74;60.70;98797.44;5062192;28;19994;-62
2023/10/07 09:50:55;;;;;;;;;;;;;;;14.76;60.73;98789.75;5076204;28;19982;-63
2023/10/07 09:53:47;;;;;;;;;;;;;;;14.78;60.53;98782.81;5079450;28;19924;-62
2023/10/07 09:56:38;;;;;;;;;;;;;;;14.81;60.20;98787.66;5074044;28;19935;-62
2023/10/07 09:59:40;;;;;;;;;;;;;;;14.86;60.30;98792.16;5078167;28;20019;-62
2023/10/07 10:02:43;;;;;;;;;;;;;;;14.89;60.27;98795.06;5080037;28;19969;-62
2023/10/07 10:05:35;;;;;;;;;;;;;;;14.95;60.50;98809.41;5107109;28;19924;-62
2023/10/07 10:08:35;;;;;;;;;;;;;;;14.99;59.87;98799.44;5106534;28;19969;-63
2023/10/07 10:11:31;;;;;;;;;;;;;;;15.06;60.23;98804.44;5106486;27;20264;-63
2023/10/07 10:14:28;;;;;;;;;;;;;;;15.12;59.71;98806.69;5101983;28;20482;-63
2023/10/07 10:17:22;;;;;;;;;;;;;;;15.23;59.46;98807.19;5109021;28;19939;-63
2023/10/07 10:20:13;;;;;;;;;;;;;;;15.29;59.08;98807.88;5110248;28;20491;-63
2023/10/07 10:23:07;;;;;;;;;;;;;;;15.35;58.62;98812.06;5102112;28;19924;-62
2023/10/07 10:25:55;;;;;;;;;;;;;;;15.38;59.21;98800.47;5107162;28;20454;-63
2023/10/07 10:28:55;;;;;;;;;;;;;;;15.40;59.17;98806.44;5107885;28;20400;-62
2023/10/07 10:31:50;;;;;;;;;;;;;;;15.43;59.15;98811.25;5101319;28;19965;-63
2023/10/07 10:34:40;;;;;;;;;;;;;;;15.43;59.09;98805.78;5102870;28;19923;-63
2023/10/07 10:37:30;;;;;;;;;;;;;;;15.45;58.95;98806.28;5102985;28;20028;-62
2023/10/07 10:40:19;;;;;;;;;;;;;;;15.43;58.94;98808.53;5105915;28;19924;-62
2023/10/07 10:43:08;;;;;;;;;;;;;;;15.43;59.29;98801.09;5098224;28;20332;-62
2023/10/07 10:46:04;;;;;;;;;;;;;;;15.44;59.45;98796.44;5106408;28;20522;-63
2023/10/07 10:48:54;;;;;;;;;;;;;;;15.46;59.31;98796.94;5106329;28;19931;-62
2023/10/07 10:51:48;;;;;;;;;;;;;;;15.44;59.38;98783.53;5098720;28;20408;-63
2023/10/07 10:54:39;;;;;;;;;;;;;;;15.45;59.47;98778.91;5099044;28;20069;-63
2023/10/07 10:57:28;;;;;;;;;;;;;;;15.48;59.19;98786.47;5103400;28;19938;-63
2023/10/07 11:00:21;;;;;;;;;;;;;;;15.47;59.27;98793.06;5105303;28;19924;-63
2023/10/07 11:03:14;;;;;;;;;;;;;;;15.48;59.33;98800.16;5102870;28;19930;-63
2023/10/07 11:06:06;;;;;;;;;;;;;;;15.48;59.45;98785.66;5103779;28;19931;-62
2023/10/07 11:08:56;;;;;;;;;;;;;;;15.51;59.17;98783.09;5106517;28;20385;-63
2023/10/07 11:11:48;;;;;;;;;;;;;;;15.53;59.16;98786.28;5103527;28;19928;-63
2023/10/07 11:14:38;;;;;;;;;;;;;;;15.54;59.30;98771.47;5100625;28;19924;-63
2023/10/07 11:17:27;;;;;;;;;;;;;;;15.56;59.21;98773.91;5107949;28;19923;-65
2023/10/07 11:20:19;;;;;;;;;;;;;;;15.56;58.96;98758.28;5108978;28;19924;-62
2023/10/07 11:23:08;;;;;;;;;;;;;;;15.60;59.33;98756.47;5097048;28;19928;-63
2023/10/07 11:25:58;;;;;;;;;;;;;;;15.62;59.13;98748.75;5105744;28;20441;-63
2023/10/07 11:28:48;;;;;;;;;;;;;;;15.65;59.36;98742.66;5107576;28;19928;-63
2023/10/07 11:31:37;;;;;;;;;;;;;;;15.69;59.48;98746.34;5108415;28;19998;-63
2023/10/07 11:34:31;;;;;;;;;;;;;;;15.73;58.83;98745.72;5100818;28;20112;-63
2023/10/07 11:37:21;;;;;;;;;;;;;;;15.76;58.79;98745.06;5105260;28;19932;-63
2023/10/07 11:40:11;;;;;;;;;;;;;;;15.80;58.87;98729.56;5097010;28;20286;-63
2023/10/07 11:43:04;;;;;;;;;;;;;;;15.82;58.65;98730.03;5099993;28;19924;-63
2023/10/07 11:45:53;;;;;;;;;;;;;;;15.84;58.59;98725.88;5103973;28;19924;-62
2023/10/07 11:48:41;;;;;;;;;;;;;;;15.85;58.81;98724.72;5106736;28;19931;-63
2023/10/07 11:51:32;;;;;;;;;;;;;;;15.89;58.51;98716.66;5102568;28;19938;-63
2023/10/07 11:54:24;;;;;;;;;;;;;;;15.92;58.42;98721.47;5101672;28;19931;-63
2023/10/07 11:57:13;;;;;;;;;;;;;;;15.93;58.38;98714.91;5094804;28;20556;-62
2023/10/07 12:00:09;;;;;;;;;;;;;;;15.93;58.14;98704.72;5095428;28;20072;-63
2023/10/07 12:03:00;;;;;;;;;;;;;;;15.96;58.45;98734.22;5103117;28;19924;-63
2023/10/07 12:05:49;;;;;;;;;;;;;;;15.98;58.10;98729.22;5098577;28;19932;-63
2023/10/07 12:08:38;;;;;;;;;;;;;;;16.00;57.94;98728.09;5092487;28;19969;-63
2023/10/07 12:11:26;;;;;;;;;;;;;;;15.99;57.92;98727.28;5105897;28;19924;-64
2023/10/07 12:14:19;;;;;;;;;;;;;;;16.00;58.06;98734.38;5101783;28;19930;-64
2023/10/07 12:17:09;;;;;;;;;;;;;;;16.02;58.07;98732.09;5104406;28;19932;-63
2023/10/07 12:19:58;;;;;;;;;;;;;;;16.07;58.07;98723.69;5106705;28;19981;-63
2023/10/07 12:22:46;;;;;;;;;;;;;;;16.10;58.11;98712.09;5099158;28;19924;-63
2023/10/07 12:25:35;;;;;;;;;;;;;;;16.16;58.29;98719.00;5107826;28;19924;-65
2023/10/07 12:28:23;;;;;;;;;;;;;;;16.16;57.79;98699.81;5107990;28;19931;-63
2023/10/07 12:31:12;;;;;;;;;;;;;;;16.19;58.14;98698.34;5111620;28;19931;-63
2023/10/07 12:34:05;;;;;;;;;;;;;;;16.22;58.01;98708.66;5110142;28;20065;-63
2023/10/07 12:36:53;;;;;;;;;;;;;;;16.24;58.14;98717.34;5103618;28;19928;-63
2023/10/07 12:39:42;;;;;;;;;;;;;;;16.29;57.96;98714.41;5109191;28;20060;-64
2023/10/07 12:42:32;;;;;;;;;;;;;;;16.33;57.99;98715.38;5101498;28;19935;-63
2023/10/07 12:45:20;;;;;;;;;;;;;;;16.41;58.13;98713.75;5101199;28;19932;-63
2023/10/07 12:48:09;;;;;;;;;;;;;;;16.47;57.72;98710.47;5102629;28;20015;-62
2023/10/07 12:50:59;;;;;;;;;;;;;;;16.57;57.67;98724.97;5106553;28;19939;-63
2023/10/07 12:53:47;;;;;;;;;;;;;;;16.58;57.32;98716.41;5101897;28;19924;-64
2023/10/07 12:56:36;;;;;;;;;;;;;;;16.60;57.51;98716.84;5107177;28;19931;-63
2023/10/07 12:59:24;;;;;;;;;;;;;;;16.60;57.40;98713.31;5108440;28;20392;-64
2023/10/07 13:02:17;;;;;;;;;;;;;;;16.59;57.49;98718.00;5107712;28;20588;-63
2023/10/07 13:05:09;;;;;;;;;;;;;;;16.63;57.45;98720.91;5108639;28;19932;-63
2023/10/07 13:07:58;;;;;;;;;;;;;;;16.64;57.76;98723.28;5103148;28;19924;-63
2023/10/07 13:10:46;;;;;;;;;;;;;;;16.64;57.66;98728.78;5102198;28;19928;-63
2023/10/07 13:13:35;;;;;;;;;;;;;;;16.66;57.62;98734.72;5103859;28;20365;-63
2023/10/07 13:16:23;;;;;;;;;;;;;;;16.66;57.74;98729.25;5108824;28;19931;-63
2023/10/07 13:19:13;;;;;;;;;;;;;;;16.71;57.73;98726.34;5101654;28;20797;-63
2023/10/07 13:22:02;;;;;;;;;;;;;;;16.73;57.72;98732.31;5109192;28;20399;-63
2023/10/07 13:24:51;;;;;;;;;;;;;;;16.76;58.00;98734.38;5100783;28;19931;-63
2023/10/07 13:27:39;;;;;;;;;;;;;;;16.79;57.85;98732.94;5106809;28;20069;-63
2023/10/07 13:30:30;;;;;;;;;;;;;;;16.82;58.01;98728.72;5103756;28;19924;-63
2023/10/07 13:33:18;;;;;;;;;;;;;;;16.84;57.99;98729.19;5109686;28;20369;-63
2023/10/07 13:36:07;;;;;;;;;;;;;;;16.87;57.98;98723.03;5107413;28;20010;-63
2023/10/07 13:38:57;;;;;;;;;;;;;;;16.90;58.03;98722.38;5105781;28;19931;-63
2023/10/07 13:41:46;;;;;;;;;;;;;;;16.91;57.98;98729.47;5100296;28;19927;-63
2023/10/07 13:44:34;;;;;;;;;;;;;;;16.92;58.03;98711.84;5106709;28;20298;-63
2023/10/07 13:47:22;;;;;;;;;;;;;;;16.93;58.24;98706.03;5104385;28;20378;-63
2023/10/07 13:50:20;;;;;;;;;;;;;;;16.95;57.94;98712.00;5104622;27;19935;-63
2023/10/07 13:53:15;;;;;;;;;;;;;;;16.95;57.83;98719.44;5100691;28;19924;-64
2023/10/07 13:56:12;;;;;;;;;;;;;;;16.97;57.80;98720.69;5102578;28;19935;-63
2023/10/07 13:59:04;;;;;;;;;;;;;;;16.98;57.93;98724.25;5099115;28;19924;-64
2023/10/07 14:01:52;;;;;;;;;;;;;;;16.97;57.91;98711.66;5106142;28;20491;-63
2023/10/07 14:04:41;;;;;;;;;;;;;;;16.98;58.00;98700.34;5097980;28;19935;-63
2023/10/07 14:07:29;;;;;;;;;;;;;;;17.00;57.97;98700.81;5100343;28;19928;-64
2023/10/07 14:10:21;;;;;;;;;;;;;;;17.01;57.88;98690.66;5102252;28;19981;-63
2023/10/07 14:13:11;;;;;;;;;;;;;;;17.02;58.08;98695.00;5103896;28;19932;-63
2023/10/07 14:16:01;;;;;;;;;;;;;;;17.04;57.82;98695.44;5106801;28;19931;-63
2023/10/07 14:19:06;;;;;;;;;;;;;;;17.03;57.86;98682.88;5105742;28;20350;-63
2023/10/07 14:21:54;;;;;;;;;;;;;;;17.02;57.91;98692.25;5099804;28;20332;-63
2023/10/07 14:24:43;;;;;;;;;;;;;;;17.04;58.14;98700.94;5104135;28;19924;-63
2023/10/07 14:27:31;;;;;;;;;;;;;;;17.04;57.85;98689.97;5098319;28;20407;-63
2023/10/07 14:30:22;;;;;;;;;;;;;;;17.03;58.04;98699.34;5103740;28;19931;-64
2023/10/07 14:33:12;;;;;;;;;;;;;;;17.03;57.91;98708.38;5106022;28;19923;-63
2023/10/07 14:36:00;;;;;;;;;;;;;;;17.02;57.69;98695.00;5110238;27;20683;-63
2023/10/07 14:38:49;;;;;;;;;;;;;;;17.01;57.81;98691.44;5105070;27;19955;-63
2023/10/07 14:41:37;;;;;;;;;;;;;;;17.00;57.73;98700.03;5101995;28;20734;-63
2023/10/07 14:44:25;;;;;;;;;;;;;;;16.98;57.80;98694.84;5111764;27;20290;-63
2023/10/07 14:47:14;;;;;;;;;;;;;;;16.98;57.67;98699.53;5104883;28;19927;-63
2023/10/07 14:50:06;;;;;;;;;;;;;;;16.96;57.55;98699.06;5103096;27;19924;-63
2023/10/07 14:52:54;;;;;;;;;;;;;;;16.96;57.70;98704.56;5104085;27;20487;-64
2023/10/07 14:55:44;;;;;;;;;;;;;;;16.97;57.73;98703.41;5099658;27;19935;-63